createdAt,value
2022-09-24T00:01:26.325Z,187.13
2022-09-24T00:03:55.782Z,187.50
2022-09-24T00:06:24.530Z,196.27
2022-09-24T00:08:55.127Z,199.33
2022-09-24T00:11:23.789Z,194.13
2022-09-24T00:13:52.951Z,198.90
2022-09-24T00:16:21.818Z,193.80
2022-09-24T00:18:49.660Z,199.13
2022-09-24T00:21:20.211Z,196.37
2022-09-24T00:23:50.735Z,199.20
2022-09-24T00:26:37.696Z,196.27
2022-09-24T00:29:05.380Z,202.27
2022-09-24T00:31:33.331Z,193.40
2022-09-24T00:34:01.474Z,193.67
2022-09-24T00:36:29.400Z,195.60
2022-09-24T00:38:58.758Z,195.73
2022-09-24T00:41:30.069Z,193.47
2022-09-24T00:43:57.850Z,197.17
2022-09-24T00:46:28.057Z,192.27
2022-09-24T00:48:59.794Z,197.23
2022-09-24T00:51:28.207Z,194.27
2022-09-24T00:53:58.176Z,196.93
2022-09-24T00:56:27.884Z,194.20
2022-09-24T00:58:57.179Z,190.07
2022-09-24T01:01:25.573Z,194.37
2022-09-24T01:03:55.384Z,194.97
2022-09-24T01:06:22.971Z,192.07
2022-09-24T01:08:50.731Z,197.10
2022-09-24T01:11:39.715Z,194.23
2022-09-24T01:14:19.776Z,193.93
2022-09-24T01:16:49.885Z,193.53
2022-09-24T01:19:40.315Z,195.27
2022-09-24T01:22:14.621Z,195.50
2022-09-24T01:25:00.179Z,190.17
2022-09-24T01:27:41.114Z,189.80
2022-09-24T01:30:11.351Z,190.87
2022-09-24T01:32:41.874Z,191.73
2022-09-24T01:35:15.664Z,192.83
2022-09-24T01:37:46.607Z,200.57
2022-09-24T01:40:14.894Z,190.97
2022-09-24T01:42:44.689Z,195.17
2022-09-24T01:45:15.220Z,194.30
2022-09-24T01:47:42.945Z,197.13
2022-09-24T01:50:12.483Z,196.73
2022-09-24T01:52:43.549Z,192.70
2022-09-24T01:55:13.225Z,193.73
2022-09-24T01:57:43.122Z,192.87
2022-09-24T02:00:15.259Z,195.80
2022-09-24T02:02:46.235Z,189.93
2022-09-24T02:05:17.331Z,191.07
2022-09-24T02:07:51.158Z,193.77
2022-09-24T02:10:21.254Z,200.83
2022-09-24T02:12:52.582Z,189.80
2022-09-24T02:15:23.309Z,193.03
2022-09-24T02:17:54.543Z,191.57
2022-09-24T02:20:23.551Z,193.47
2022-09-24T02:22:53.064Z,193.33
2022-09-24T02:25:24.780Z,190.37
2022-09-24T02:27:52.324Z,191.03
2022-09-24T02:30:21.174Z,187.80
2022-09-24T02:32:49.752Z,194.07
2022-09-24T02:35:16.656Z,190.57
2022-09-24T02:37:45.266Z,190.43
2022-09-24T02:40:14.391Z,192.77
2022-09-24T02:42:43.344Z,193.53
2022-09-24T02:45:12.266Z,188.90
2022-09-24T02:47:41.140Z,193.63
2022-09-24T02:50:09.327Z,191.63
2022-09-24T02:52:36.803Z,188.67
2022-09-24T02:55:04.894Z,191.20
2022-09-24T02:57:32.982Z,189.13
2022-09-24T03:00:00.467Z,194.03
2022-09-24T03:02:27.991Z,194.77
2022-09-24T03:04:56.940Z,192.53
2022-09-24T03:07:24.530Z,192.67
2022-09-24T03:09:52.023Z,194.80
2022-09-24T03:12:19.520Z,197.43
2022-09-24T03:14:47.030Z,199.37
2022-09-24T03:17:14.527Z,192.23
2022-09-24T03:19:42.173Z,191.33
2022-09-24T03:22:11.026Z,190.43
2022-09-24T03:24:38.504Z,191.57
2022-09-24T03:27:05.997Z,194.27
2022-09-24T03:29:50.840Z,191.50
2022-09-24T03:32:18.341Z,189.60
2022-09-24T03:34:45.819Z,191.73
2022-09-24T03:37:14.737Z,189.57
2022-09-24T03:39:42.256Z,189.63
2022-09-24T03:42:09.767Z,188.23
2022-09-24T03:44:37.249Z,188.87
2022-09-24T03:47:04.953Z,186.53
2022-09-24T03:49:32.436Z,191.90
2022-09-24T03:51:59.982Z,191.47
2022-09-24T03:54:28.835Z,186.50
2022-09-24T03:56:56.317Z,188.97
2022-09-24T03:59:24.076Z,194.67
2022-09-24T04:01:51.657Z,193.97
2022-09-24T04:04:19.364Z,198.43
2022-09-24T04:06:46.881Z,193.10
2022-09-24T04:09:14.375Z,190.47
2022-09-24T04:11:43.385Z,186.97
2022-09-24T04:14:11.038Z,192.43
2022-09-24T04:16:38.595Z,192.67
2022-09-24T04:19:08.066Z,190.57
2022-09-24T04:21:35.749Z,189.07
2022-09-24T04:24:03.497Z,189.77
2022-09-24T04:26:30.996Z,189.93
2022-09-24T04:28:59.936Z,195.90
2022-09-24T04:31:27.980Z,189.17
2022-09-24T04:33:55.901Z,187.60
2022-09-24T04:36:23.391Z,188.63
2022-09-24T04:38:50.922Z,189.60
2022-09-24T04:41:18.457Z,187.93
2022-09-24T04:43:46.598Z,195.10
2022-09-24T04:46:15.527Z,188.27
2022-09-24T04:48:43.434Z,186.93
2022-09-24T04:51:11.406Z,186.63
2022-09-24T04:53:38.915Z,186.03
2022-09-24T04:56:11.220Z,184.37
2022-09-24T04:58:38.801Z,189.20
2022-09-24T05:01:06.693Z,185.53
2022-09-24T05:03:35.543Z,184.10
2022-09-24T05:06:03.039Z,186.03
2022-09-24T05:08:30.540Z,185.03
2022-09-24T05:10:58.029Z,189.00
2022-09-24T05:13:26.092Z,188.27
2022-09-24T05:15:53.606Z,187.67
2022-09-24T05:18:21.315Z,187.67
2022-09-24T05:20:50.136Z,191.93
2022-09-24T05:23:17.933Z,186.53
2022-09-24T05:26:03.172Z,189.70
2022-09-24T05:28:33.076Z,188.00
2022-09-24T05:31:00.995Z,185.77
2022-09-24T05:33:28.590Z,184.37
2022-09-24T05:35:58.442Z,181.43
2022-09-24T05:38:25.944Z,186.03
2022-09-24T05:40:54.535Z,183.23
2022-09-24T05:43:22.122Z,184.73
2022-09-24T05:45:50.569Z,188.77
2022-09-24T05:48:18.161Z,182.40
2022-09-24T05:50:45.647Z,191.37
2022-09-24T05:53:14.483Z,189.57
2022-09-24T05:55:43.579Z,186.20
2022-09-24T05:58:11.964Z,189.23
2022-09-24T06:00:39.479Z,187.87
2022-09-24T06:03:08.842Z,184.93
2022-09-24T06:05:36.404Z,184.27
2022-09-24T06:08:04.007Z,185.07
2022-09-24T06:10:33.439Z,191.40
2022-09-24T06:13:00.947Z,186.03
2022-09-24T06:15:28.528Z,188.47
2022-09-24T06:17:56.360Z,183.90
2022-09-24T06:20:24.115Z,185.17
2022-09-24T06:22:51.602Z,185.90
2022-09-24T06:25:19.088Z,185.80
2022-09-24T06:28:00.241Z,186.20
2022-09-24T06:30:28.551Z,181.37
2022-09-24T06:32:56.299Z,180.67
2022-09-24T06:35:23.781Z,184.60
2022-09-24T06:37:53.887Z,183.77
2022-09-24T06:40:21.481Z,181.83
2022-09-24T06:42:53.716Z,183.20
2022-09-24T06:45:21.396Z,183.07
2022-09-24T06:47:53.649Z,182.67
2022-09-24T06:50:21.628Z,183.37
2022-09-24T06:52:49.323Z,184.47
2022-09-24T06:55:17.392Z,182.53
2022-09-24T06:57:45.717Z,186.87
2022-09-24T07:00:15.757Z,186.50
2022-09-24T07:02:43.675Z,183.23
2022-09-24T07:05:11.345Z,184.17
2022-09-24T07:07:38.882Z,186.97
2022-09-24T07:10:08.182Z,184.33
2022-09-24T07:12:36.324Z,184.80
2022-09-24T07:15:04.500Z,184.27
2022-09-24T07:17:34.103Z,185.57
2022-09-24T07:20:02.052Z,186.17
2022-09-24T07:22:29.582Z,182.03
2022-09-24T07:24:57.151Z,187.73
2022-09-24T07:27:25.319Z,175.47
2022-09-24T07:29:52.856Z,188.20
2022-09-24T07:32:20.357Z,188.10
2022-09-24T07:34:49.359Z,188.00
2022-09-24T07:37:16.852Z,190.07
2022-09-24T07:39:45.542Z,189.17
2022-09-24T07:42:13.054Z,187.50
2022-09-24T07:44:40.548Z,187.10
2022-09-24T07:47:10.995Z,188.63
2022-09-24T07:49:42.582Z,178.93
2022-09-24T07:52:11.704Z,186.70
2022-09-24T07:54:39.367Z,191.03
2022-09-24T07:57:11.955Z,188.20
2022-09-24T07:59:39.472Z,190.97
2022-09-24T08:02:11.330Z,191.03
2022-09-24T08:04:38.836Z,190.03
2022-09-24T08:07:06.319Z,188.73
2022-09-24T08:09:35.178Z,191.27
2022-09-24T08:12:02.958Z,190.90
2022-09-24T08:14:30.465Z,193.70
2022-09-24T08:16:58.020Z,190.33
2022-09-24T08:19:25.597Z,194.30
2022-09-24T08:21:53.811Z,192.37
2022-09-24T08:24:21.340Z,179.93
2022-09-24T08:26:50.181Z,190.13
2022-09-24T08:29:18.103Z,185.50
2022-09-24T08:31:45.638Z,196.33
2022-09-24T08:34:13.359Z,196.37
2022-09-24T08:36:43.148Z,180.67
2022-09-24T08:39:13.489Z,189.80
2022-09-24T08:42:01.129Z,191.50
2022-09-24T08:44:47.915Z,189.77
2022-09-24T08:47:23.614Z,190.70
2022-09-24T08:49:57.826Z,192.87
2022-09-24T08:52:32.544Z,188.73
2022-09-24T08:55:03.166Z,191.97
2022-09-24T08:57:38.235Z,186.87
2022-09-24T09:00:07.999Z,197.93
2022-09-24T09:02:43.622Z,189.57
2022-09-24T09:05:19.118Z,185.37
2022-09-24T09:07:51.492Z,189.47
2022-09-24T09:10:27.654Z,184.13
2022-09-24T09:12:58.096Z,193.13
2022-09-24T09:15:27.868Z,188.63
2022-09-24T09:17:59.936Z,186.07
2022-09-24T09:20:31.919Z,183.77
2022-09-24T09:23:04.087Z,191.63
2022-09-24T09:25:36.246Z,185.10
2022-09-24T09:28:14.913Z,187.23
2022-09-24T09:30:54.927Z,185.43
2022-09-24T09:33:32.947Z,186.43
2022-09-24T09:36:11.891Z,187.57
2022-09-24T09:38:44.787Z,184.77
2022-09-24T09:41:21.728Z,185.63
2022-09-24T09:43:50.586Z,186.83
2022-09-24T09:46:23.702Z,183.53
2022-09-24T09:48:55.352Z,188.37
2022-09-24T09:51:26.192Z,183.57
2022-09-24T09:53:58.240Z,187.60
2022-09-24T09:56:27.708Z,187.03
2022-09-24T09:59:06.825Z,184.53
2022-09-24T10:01:36.004Z,184.67
2022-09-24T10:04:04.904Z,192.70
2022-09-24T10:06:33.851Z,186.87
2022-09-24T10:09:09.711Z,187.47
2022-09-24T10:11:37.209Z,184.37
2022-09-24T10:14:07.253Z,189.43
2022-09-24T10:16:38.747Z,183.13
2022-09-24T10:19:18.403Z,186.80
2022-09-24T10:21:46.313Z,187.77
2022-09-24T10:24:17.472Z,182.50
2022-09-24T10:26:46.267Z,184.93
2022-09-24T10:29:34.625Z,187.67
2022-09-24T10:32:02.927Z,184.30
2022-09-24T10:34:31.327Z,185.90
2022-09-24T10:37:01.419Z,188.27
2022-09-24T10:39:29.192Z,189.47
2022-09-24T10:41:58.101Z,187.20
2022-09-24T10:44:31.113Z,189.33
2022-09-24T10:47:08.878Z,179.77
2022-09-24T10:49:48.950Z,189.00
2022-09-24T10:52:30.143Z,185.47
2022-09-24T10:55:07.130Z,187.40
2022-09-24T10:57:39.597Z,183.47
2022-09-24T11:00:22.850Z,192.07
2022-09-24T11:03:18.152Z,190.27
2022-09-24T11:05:46.812Z,184.50
2022-09-24T11:08:20.128Z,182.43
2022-09-24T11:11:12.840Z,202.97
2022-09-24T11:13:49.142Z,190.43
2022-09-24T11:16:35.577Z,187.87
2022-09-24T11:19:04.412Z,187.00
2022-09-24T11:21:57.623Z,181.67
2022-09-24T11:24:40.320Z,176.13
2022-09-24T11:27:24.319Z,188.93
2022-09-24T11:30:00.673Z,193.67
2022-09-24T11:32:36.130Z,190.73
2022-09-24T11:35:18.145Z,192.73
2022-09-24T11:37:55.540Z,183.47
2022-09-24T11:40:30.872Z,180.43
2022-09-24T11:43:09.525Z,187.77
2022-09-24T11:45:54.227Z,190.33
2022-09-24T11:48:50.464Z,187.60
2022-09-24T11:51:26.346Z,189.50
2022-09-24T11:53:57.787Z,186.10
2022-09-24T11:56:29.144Z,188.93
2022-09-24T11:59:00.179Z,191.07
2022-09-24T12:01:30.286Z,187.67
2022-09-24T12:04:03.114Z,190.43
2022-09-24T12:06:32.841Z,186.87
2022-09-24T12:09:02.972Z,187.83
2022-09-24T12:11:33.993Z,186.47
2022-09-24T12:14:06.363Z,189.97
2022-09-24T12:16:38.285Z,186.47
2022-09-24T12:19:12.405Z,188.33
2022-09-24T12:21:41.471Z,187.80
2022-09-24T12:24:14.030Z,193.27
2022-09-24T12:26:42.995Z,187.53
2022-09-24T12:29:50.297Z,186.63
2022-09-24T12:32:39.565Z,186.43
2022-09-24T12:35:17.408Z,184.67
2022-09-24T12:37:45.555Z,191.13
2022-09-24T12:40:26.282Z,187.20
2022-09-24T12:42:57.552Z,188.17
2022-09-24T12:45:26.230Z,184.53
2022-09-24T12:47:57.024Z,185.93
2022-09-24T12:50:28.061Z,185.27
2022-09-24T12:52:55.736Z,184.37
2022-09-24T12:55:25.371Z,183.53
2022-09-24T12:57:55.384Z,187.00
2022-09-24T13:00:39.640Z,182.57
2022-09-24T13:03:08.344Z,185.00
2022-09-24T13:05:48.502Z,184.80
2022-09-24T13:08:26.415Z,183.67
2022-09-24T13:10:55.820Z,185.13
2022-09-24T13:13:25.759Z,184.37
2022-09-24T13:16:01.551Z,191.17
2022-09-24T13:18:31.428Z,173.20
2022-09-24T13:21:02.996Z,178.63
2022-09-24T13:23:35.143Z,184.70
2022-09-24T13:26:04.808Z,184.17
2022-09-24T13:28:38.823Z,178.73
2022-09-24T13:31:14.020Z,177.63
2022-09-24T13:33:44.243Z,174.43
2022-09-24T13:36:17.044Z,182.67
2022-09-24T13:38:50.857Z,183.87
2022-09-24T13:41:25.654Z,185.33
2022-09-24T13:43:57.639Z,188.77
2022-09-24T13:46:27.051Z,186.03
2022-09-24T13:48:57.076Z,174.73
2022-09-24T13:51:29.769Z,183.77
2022-09-24T13:54:01.458Z,184.07
2022-09-24T13:56:28.998Z,182.63
2022-09-24T13:59:04.892Z,185.50
2022-09-24T14:01:37.753Z,185.47
2022-09-24T14:04:08.659Z,204.27
2022-09-24T14:06:40.068Z,186.13
2022-09-24T14:09:16.857Z,186.03
2022-09-24T14:11:50.349Z,183.33
2022-09-24T14:14:19.776Z,187.87
2022-09-24T14:16:47.330Z,185.07
2022-09-24T14:19:16.275Z,188.83
2022-09-24T14:21:48.072Z,187.90
2022-09-24T14:24:19.655Z,186.23
2022-09-24T14:26:49.782Z,187.70
2022-09-24T14:29:18.847Z,180.93
2022-09-24T14:31:48.291Z,187.03
2022-09-24T14:34:25.659Z,194.17
2022-09-24T14:36:55.527Z,177.73
2022-09-24T14:39:25.979Z,178.73
2022-09-24T14:41:54.115Z,190.93
2022-09-24T14:44:23.563Z,188.50
2022-09-24T14:46:53.451Z,180.37
2022-09-24T14:49:22.223Z,180.87
2022-09-24T14:51:55.661Z,190.73
2022-09-24T14:54:29.642Z,189.90
2022-09-24T14:56:57.241Z,188.33
2022-09-24T14:59:30.075Z,186.17
2022-09-24T15:02:15.629Z,187.73
2022-09-24T15:04:46.844Z,189.80
2022-09-24T15:07:19.183Z,185.37
2022-09-24T15:09:51.336Z,191.43
2022-09-24T15:12:20.992Z,188.47
2022-09-24T15:14:56.097Z,193.97
2022-09-24T15:17:27.062Z,188.47
2022-09-24T15:19:56.353Z,190.07
2022-09-24T15:22:26.801Z,190.83
2022-09-24T15:25:00.291Z,182.47
2022-09-24T15:27:30.174Z,186.43
2022-09-24T15:29:59.768Z,187.97
2022-09-24T15:32:28.464Z,186.87
2022-09-24T15:34:56.541Z,184.67
2022-09-24T15:37:26.615Z,186.17
2022-09-24T15:40:06.109Z,188.33
2022-09-24T15:42:33.634Z,179.97
2022-09-24T15:45:01.187Z,181.43
2022-09-24T15:47:28.687Z,184.10
2022-09-24T15:49:56.196Z,191.30
2022-09-24T15:52:26.728Z,182.27
2022-09-24T15:54:55.291Z,187.67
2022-09-24T15:57:23.483Z,183.60
2022-09-24T15:59:51.276Z,185.93
2022-09-24T16:02:22.589Z,182.77
2022-09-24T16:04:51.898Z,184.37
2022-09-24T16:07:19.445Z,182.00
2022-09-24T16:09:48.305Z,182.10
2022-09-24T16:12:16.332Z,177.87
2022-09-24T16:14:43.975Z,182.97
2022-09-24T16:17:12.047Z,183.47
2022-09-24T16:19:39.580Z,183.37
2022-09-24T16:22:07.335Z,180.77
2022-09-24T16:24:35.126Z,180.97
2022-09-24T16:27:04.004Z,169.93
2022-09-24T16:29:31.543Z,173.93
2022-09-24T16:31:59.068Z,172.97
2022-09-24T16:34:26.596Z,172.23
2022-09-24T16:36:54.091Z,177.03
2022-09-24T16:39:21.671Z,182.77
2022-09-24T16:41:49.673Z,174.23
2022-09-24T16:44:19.195Z,179.80
2022-09-24T16:46:47.043Z,183.90
2022-09-24T16:49:14.616Z,181.60
2022-09-24T16:51:42.238Z,180.47
2022-09-24T16:54:10.702Z,186.53
2022-09-24T16:56:38.741Z,178.77
2022-09-24T16:59:06.284Z,183.17
2022-09-24T17:01:35.254Z,179.93
2022-09-24T17:04:03.075Z,190.37
2022-09-24T17:06:31.806Z,181.47
2022-09-24T17:09:17.068Z,180.37
2022-09-24T17:11:46.591Z,181.83
2022-09-24T17:14:14.668Z,187.33
2022-09-24T17:16:44.372Z,181.87
2022-09-24T17:19:12.907Z,178.63
2022-09-24T17:21:42.279Z,184.17
2022-09-24T17:24:10.668Z,186.47
2022-09-24T17:26:39.164Z,181.23
2022-09-24T17:29:06.936Z,178.77
2022-09-24T17:31:34.468Z,178.73
2022-09-24T17:34:04.746Z,184.73
2022-09-24T17:36:33.796Z,178.47
2022-09-24T17:39:01.598Z,180.33
2022-09-24T17:41:30.160Z,178.77
2022-09-24T17:43:59.394Z,179.03
2022-09-24T17:46:28.027Z,177.37
2022-09-24T17:48:56.737Z,178.57
2022-09-24T17:51:27.294Z,181.13
2022-09-24T17:53:56.014Z,183.07
2022-09-24T17:56:25.225Z,178.77
2022-09-24T17:58:53.224Z,188.07
2022-09-24T18:01:22.371Z,178.63
2022-09-24T18:03:53.681Z,177.47
2022-09-24T18:06:21.348Z,183.97
2022-09-24T18:08:50.204Z,178.80
2022-09-24T18:11:19.521Z,181.17
2022-09-24T18:13:51.282Z,182.70
2022-09-24T18:16:19.932Z,174.77
2022-09-24T18:18:49.032Z,177.13
2022-09-24T18:21:17.569Z,178.27
2022-09-24T18:23:46.615Z,176.73
2022-09-24T18:26:16.402Z,177.37
2022-09-24T18:28:49.065Z,180.93
2022-09-24T18:31:17.886Z,178.13
2022-09-24T18:33:46.877Z,179.40
2022-09-24T18:36:16.696Z,177.10
2022-09-24T18:38:44.761Z,185.53
2022-09-24T18:41:15.254Z,183.03
2022-09-24T18:43:43.235Z,183.07
2022-09-24T18:46:12.248Z,180.33
2022-09-24T18:48:40.939Z,177.37
2022-09-24T18:51:09.396Z,181.23
2022-09-24T18:53:36.894Z,179.30
2022-09-24T18:56:05.916Z,178.93
2022-09-24T18:58:35.041Z,187.73
2022-09-24T19:01:03.774Z,179.87
2022-09-24T19:03:31.960Z,179.23
2022-09-24T19:06:02.100Z,180.00
2022-09-24T19:08:31.893Z,177.77
2022-09-24T19:11:02.620Z,187.53
2022-09-24T19:13:30.123Z,182.57
2022-09-24T19:15:59.058Z,173.70
2022-09-24T19:18:26.583Z,168.80
2022-09-24T19:20:57.583Z,173.77
2022-09-24T19:23:25.167Z,180.00
2022-09-24T19:25:54.184Z,171.70
2022-09-24T19:28:21.744Z,177.70
2022-09-24T19:30:50.340Z,172.43
2022-09-24T19:33:19.371Z,174.70
2022-09-24T19:35:54.232Z,183.77
2022-09-24T19:38:23.696Z,177.03
2022-09-24T19:40:58.230Z,168.90
2022-09-24T19:43:25.775Z,181.20
2022-09-24T19:45:58.076Z,179.47
2022-09-24T19:48:27.900Z,180.17
2022-09-24T19:50:55.744Z,179.97
2022-09-24T19:53:23.308Z,170.67
2022-09-24T19:55:50.800Z,177.80
2022-09-24T19:58:18.324Z,181.60
2022-09-24T20:00:45.872Z,181.33
2022-09-24T20:03:13.923Z,180.87
2022-09-24T20:05:43.609Z,169.40
2022-09-24T20:08:12.355Z,172.17
2022-09-24T20:10:40.900Z,168.73
2022-09-24T20:13:10.574Z,179.17
2022-09-24T20:15:39.009Z,167.37
2022-09-24T20:18:06.959Z,167.00
2022-09-24T20:20:34.876Z,178.00
2022-09-24T20:23:03.716Z,172.57
2022-09-24T20:25:48.619Z,181.20
2022-09-24T20:28:16.385Z,180.30
2022-09-24T20:30:44.422Z,177.17
2022-09-24T20:33:12.790Z,176.63
2022-09-24T20:35:41.017Z,182.87
2022-09-24T20:38:10.288Z,175.63
2022-09-24T20:40:40.664Z,178.83
2022-09-24T20:43:08.587Z,178.40
2022-09-24T20:45:36.156Z,178.63
2022-09-24T20:48:03.726Z,178.40
2022-09-24T20:50:31.976Z,179.80
2022-09-24T20:52:59.459Z,174.00
2022-09-24T20:55:28.325Z,178.00
2022-09-24T20:57:55.962Z,178.93
2022-09-24T21:00:24.935Z,176.43
2022-09-24T21:02:52.654Z,178.07
2022-09-24T21:05:20.244Z,179.07
2022-09-24T21:07:48.092Z,179.13
2022-09-24T21:10:15.707Z,180.07
2022-09-24T21:12:48.817Z,181.57
2022-09-24T21:15:18.509Z,178.17
2022-09-24T21:17:59.619Z,182.37
2022-09-24T21:20:34.227Z,180.33
2022-09-24T21:23:01.998Z,178.13
2022-09-24T21:25:52.652Z,176.00
2022-09-24T21:28:18.347Z,178.60
2022-09-24T21:30:56.737Z,180.13
2022-09-24T21:33:24.356Z,178.70
2022-09-24T21:35:52.023Z,179.47
2022-09-24T21:38:19.736Z,178.77
2022-09-24T21:40:53.434Z,174.77
2022-09-24T21:43:23.544Z,179.07
2022-09-24T21:45:52.252Z,176.73
2022-09-24T21:48:19.888Z,179.50
2022-09-24T21:50:47.399Z,181.50
2022-09-24T21:53:14.886Z,177.43
2022-09-24T21:55:43.098Z,178.40
2022-09-24T21:58:10.605Z,178.77
2022-09-24T22:00:39.438Z,183.40
2022-09-24T22:03:08.178Z,177.07
2022-09-24T22:05:42.909Z,179.97
2022-09-24T22:08:11.694Z,180.47
2022-09-24T22:10:40.200Z,187.30
2022-09-24T22:13:08.365Z,177.73
2022-09-24T22:15:36.244Z,177.83
2022-09-24T22:18:05.376Z,177.97
2022-09-24T22:20:32.883Z,182.87
2022-09-24T22:23:00.391Z,178.37
2022-09-24T22:25:28.112Z,179.53
2022-09-24T22:27:55.608Z,176.80
2022-09-24T22:30:23.093Z,176.50
2022-09-24T22:32:50.604Z,181.93
2022-09-24T22:35:42.343Z,176.83
2022-09-24T22:38:10.720Z,180.83
2022-09-24T22:40:38.414Z,182.80
2022-09-24T22:43:05.968Z,179.27
2022-09-24T22:45:33.473Z,167.60
2022-09-24T22:48:01.875Z,177.03
2022-09-24T22:50:30.736Z,178.73
2022-09-24T22:52:58.231Z,180.93
2022-09-24T22:55:25.740Z,183.63
2022-09-24T22:57:53.233Z,179.43
2022-09-24T23:00:20.994Z,177.57
2022-09-24T23:02:48.586Z,185.07
2022-09-24T23:05:16.328Z,179.83
2022-09-24T23:07:45.256Z,183.43
2022-09-24T23:10:12.771Z,181.27
2022-09-24T23:12:40.304Z,180.37
2022-09-24T23:15:09.183Z,183.27
2022-09-24T23:17:37.078Z,180.47
2022-09-24T23:20:05.353Z,182.20
2022-09-24T23:22:32.847Z,177.77
2022-09-24T23:25:01.959Z,180.27
2022-09-24T23:27:29.463Z,178.67
2022-09-24T23:29:56.972Z,170.53
2022-09-24T23:32:24.468Z,178.83
2022-09-24T23:34:52.125Z,187.37
2022-09-24T23:37:19.745Z,186.03
2022-09-24T23:39:47.254Z,179.40
2022-09-24T23:42:16.115Z,185.00
2022-09-24T23:44:45.270Z,181.93
2022-09-24T23:47:12.967Z,178.97
2022-09-24T23:50:31.220Z,183.40
2022-09-24T23:52:58.726Z,182.37
2022-09-24T23:55:26.215Z,181.57
2022-09-24T23:57:53.695Z,181.03
